Edson, Canada
Current Conditions -  °F | °C
As of 9:32 PM on Saturday 20 Dec 2014 (Local Time) from CYET Reporting Station
Haze Haze  
Wind Chill: 12°   Ceiling: 15000
Heat Index: 12°   Visibility: 5mi
Dew Point: 10°   Wind: 3mph
Humidity: 92%   Direction: 280°W
Pressure: 29.28"   Gusts: NA
Location:  53.58°N, 116.43°W
Report Text: CYET 210432Z AUTO 28003KT 190V290 5SM BR OVC150 M11/M12 A2928 RMK SLP979
Loading
Personal Weather Stations






























Interactive Weather Map New forecast layout! Learn more

10-Day Weather Forecast

Advertisements
Track Severe Weather on mobile